createdAt,value
2022-09-23T00:03:33.823Z,6.10
2022-09-23T00:07:38.487Z,6.10
2022-09-23T00:11:41.403Z,6.00
2022-09-23T00:15:44.282Z,6.10
2022-09-23T00:19:48.790Z,6.00
2022-09-23T00:23:52.094Z,6.10
2022-09-23T00:27:55.465Z,6.20
2022-09-23T00:31:58.431Z,6.00
2022-09-23T00:36:03.987Z,5.90
2022-09-23T00:40:08.020Z,5.70
2022-09-23T00:44:43.325Z,5.80
2022-09-23T00:48:47.252Z,5.90
2022-09-23T00:52:53.454Z,5.90
2022-09-23T00:56:57.505Z,5.70
2022-09-23T01:01:01.336Z,5.50
2022-09-23T01:05:05.901Z,5.30
2022-09-23T01:09:10.219Z,5.50
2022-09-23T01:13:23.390Z,5.40
2022-09-23T01:17:37.039Z,5.50
2022-09-23T01:21:49.782Z,5.50
2022-09-23T01:26:21.472Z,5.50
2022-09-23T01:30:39.138Z,5.50
2022-09-23T01:34:49.412Z,5.40
2022-09-23T01:38:59.618Z,5.30
2022-09-23T01:43:10.235Z,5.10
2022-09-23T01:47:18.551Z,5.10
2022-09-23T01:51:27.731Z,5.30
2022-09-23T01:55:34.889Z,5.10
2022-09-23T01:59:40.487Z,5.10
2022-09-23T02:03:49.990Z,5.00
2022-09-23T02:07:59.450Z,5.00
2022-09-23T02:12:05.890Z,5.10
2022-09-23T02:16:14.096Z,5.00
2022-09-23T02:20:21.836Z,5.00
2022-09-23T02:24:30.658Z,4.90
2022-09-23T02:28:39.338Z,4.90
2022-09-23T02:32:50.415Z,5.00
2022-09-23T02:37:07.794Z,5.00
2022-09-23T02:41:15.010Z,4.90
2022-09-23T02:45:18.379Z,4.90
2022-09-23T02:49:24.316Z,4.70
2022-09-23T02:53:28.977Z,4.50
2022-09-23T02:57:32.129Z,4.50
2022-09-23T03:01:45.194Z,4.50
2022-09-23T03:05:55.046Z,4.50
2022-09-23T03:10:09.697Z,4.50
2022-09-23T03:14:18.075Z,4.60
2022-09-23T03:18:28.255Z,4.70
2022-09-23T03:22:34.851Z,4.60
2022-09-23T03:26:39.978Z,4.40
2022-09-23T03:30:43.670Z,4.30
2022-09-23T03:34:51.018Z,4.20
2022-09-23T03:39:03.841Z,4.20
2022-09-23T03:43:08.724Z,4.30
2022-09-23T03:47:12.667Z,4.10
2022-09-23T03:51:22.680Z,4.10
2022-09-23T03:55:25.905Z,3.90
2022-09-23T03:59:31.497Z,4.20
2022-09-23T04:03:34.418Z,4.10
2022-09-23T04:07:37.584Z,4.00
2022-09-23T04:11:40.585Z,4.00
2022-09-23T04:15:44.830Z,4.10
2022-09-23T04:19:47.804Z,4.10
2022-09-23T04:23:50.708Z,3.90
2022-09-23T04:27:53.659Z,3.90
2022-09-23T04:31:58.129Z,3.90
2022-09-23T04:36:01.555Z,3.70
2022-09-23T04:40:04.802Z,3.70
2022-09-23T04:44:07.824Z,3.60
2022-09-23T04:48:13.881Z,3.60
2022-09-23T04:52:16.858Z,3.60
2022-09-23T04:56:21.744Z,3.50
2022-09-23T05:00:24.783Z,3.60
2022-09-23T05:04:29.222Z,3.40
2022-09-23T05:08:32.204Z,3.50
2022-09-23T05:12:35.123Z,3.50
2022-09-23T05:16:38.056Z,3.50
2022-09-23T05:20:42.523Z,3.50
2022-09-23T05:24:46.843Z,3.50
2022-09-23T05:28:49.797Z,3.30
2022-09-23T05:32:52.698Z,3.50
2022-09-23T05:36:58.366Z,3.50
2022-09-23T05:41:03.854Z,3.40
2022-09-23T05:45:07.734Z,3.40
2022-09-23T05:49:10.716Z,3.50
2022-09-23T05:53:14.998Z,3.30
2022-09-23T05:57:18.987Z,3.30
2022-09-23T06:01:25.238Z,3.60
2022-09-23T06:05:28.633Z,3.70
2022-09-23T06:09:36.492Z,3.70
2022-09-23T06:13:40.855Z,3.90
2022-09-23T06:17:43.843Z,4.00
2022-09-23T06:21:46.792Z,4.10
2022-09-23T06:25:51.063Z,4.20
2022-09-23T06:29:53.970Z,4.30
2022-09-23T06:34:08.604Z,4.50
2022-09-23T06:38:14.994Z,4.50
2022-09-23T06:42:19.797Z,4.70
2022-09-23T06:46:22.745Z,5.00
2022-09-23T06:50:26.970Z,5.10
2022-09-23T06:54:31.458Z,5.30
2022-09-23T06:58:38.126Z,5.50
2022-09-23T07:02:42.033Z,5.70
2022-09-23T07:06:45.039Z,5.90
2022-09-23T07:10:52.680Z,6.10
2022-09-23T07:14:57.305Z,6.20
2022-09-23T07:19:00.404Z,6.50
2022-09-23T07:23:03.329Z,6.90
2022-09-23T07:27:06.765Z,7.30
2022-09-23T07:31:13.531Z,7.50
2022-09-23T07:35:16.881Z,7.80
2022-09-23T07:39:20.230Z,8.10
2022-09-23T07:43:23.771Z,8.20
2022-09-23T07:47:28.083Z,8.40
2022-09-23T07:51:36.078Z,8.60
2022-09-23T07:55:39.661Z,8.80
2022-09-23T07:59:43.220Z,9.00
2022-09-23T08:03:48.025Z,9.00
2022-09-23T08:07:51.012Z,9.20
2022-09-23T08:11:54.145Z,9.30
2022-09-23T08:15:57.101Z,9.40
2022-09-23T08:20:01.779Z,9.40
2022-09-23T08:24:04.881Z,9.50
2022-09-23T08:28:08.079Z,9.60
2022-09-23T08:32:11.077Z,9.70
2022-09-23T08:36:15.365Z,9.90
2022-09-23T08:40:19.796Z,10.00
2022-09-23T08:44:28.762Z,10.00
2022-09-23T08:48:34.428Z,10.20
2022-09-23T08:52:45.568Z,10.30
2022-09-23T08:56:52.436Z,10.40
2022-09-23T09:01:04.229Z,10.60
2022-09-23T09:05:09.985Z,10.90
2022-09-23T09:09:23.417Z,10.90
2022-09-23T09:13:32.715Z,11.00
2022-09-23T09:17:38.326Z,11.10
2022-09-23T09:21:42.858Z,11.20
2022-09-23T09:25:50.867Z,11.30
2022-09-23T09:29:55.661Z,11.70
2022-09-23T09:34:05.579Z,11.80
2022-09-23T09:38:09.114Z,11.90
2022-09-23T09:42:21.065Z,12.20
2022-09-23T09:46:45.197Z,12.40
2022-09-23T09:50:50.770Z,12.50
2022-09-23T09:54:56.167Z,12.70
2022-09-23T09:59:03.142Z,12.80
2022-09-23T10:03:24.645Z,13.00
2022-09-23T10:07:30.076Z,13.30
2022-09-23T10:11:33.602Z,13.50
2022-09-23T10:15:45.742Z,13.70
2022-09-23T10:19:50.478Z,13.70
2022-09-23T10:23:57.906Z,13.90
2022-09-23T10:28:20.847Z,14.10
2022-09-23T10:32:30.916Z,14.40
2022-09-23T10:36:34.598Z,14.80
2022-09-23T10:40:58.328Z,15.00
2022-09-23T10:45:25.615Z,15.50
2022-09-23T10:49:47.619Z,15.60
2022-09-23T10:54:00.994Z,16.10
2022-09-23T10:58:17.509Z,16.40
2022-09-23T11:02:45.143Z,16.70
2022-09-23T11:07:07.902Z,17.20
2022-09-23T11:11:29.939Z,17.00
2022-09-23T11:15:44.033Z,17.20
2022-09-23T11:20:08.353Z,17.30
2022-09-23T11:24:28.008Z,17.40
2022-09-23T11:29:13.753Z,17.70
2022-09-23T11:33:31.384Z,17.80
2022-09-23T11:37:39.221Z,18.10
2022-09-23T11:41:45.445Z,18.30
2022-09-23T11:45:52.805Z,18.30
2022-09-23T11:50:00.384Z,18.60
2022-09-23T11:54:07.215Z,18.60
2022-09-23T11:58:24.183Z,18.50
2022-09-23T12:02:34.683Z,18.90
2022-09-23T12:06:42.782Z,19.50
2022-09-23T12:10:52.929Z,20.30
2022-09-23T12:15:05.474Z,19.00
2022-09-23T12:19:28.036Z,18.60
2022-09-23T12:23:44.934Z,18.90
2022-09-23T12:27:51.214Z,19.10
2022-09-23T12:31:55.783Z,19.10
2022-09-23T12:36:05.092Z,19.80
2022-09-23T12:40:15.786Z,20.10
2022-09-23T12:44:32.376Z,20.60
2022-09-23T12:48:47.648Z,21.20
2022-09-23T12:52:50.560Z,21.90
2022-09-23T12:57:07.041Z,21.10
2022-09-23T13:01:20.242Z,20.80
2022-09-23T13:05:44.708Z,21.50
2022-09-23T13:09:51.381Z,21.30
2022-09-23T13:13:57.424Z,22.00
2022-09-23T13:18:26.264Z,23.40
2022-09-23T13:23:06.054Z,23.60
2022-09-23T13:27:26.617Z,23.30
2022-09-23T13:31:29.683Z,23.80
2022-09-23T13:35:36.590Z,24.20
2022-09-23T13:39:40.834Z,23.00
2022-09-23T13:43:46.531Z,22.30
2022-09-23T13:47:51.636Z,22.60
2022-09-23T13:51:55.491Z,22.80
2022-09-23T13:56:05.810Z,23.30
2022-09-23T14:00:18.837Z,23.60
2022-09-23T14:04:25.469Z,23.20
2022-09-23T14:08:29.859Z,21.90
2022-09-23T14:12:34.259Z,21.20
2022-09-23T14:16:39.395Z,21.10
2022-09-23T14:20:46.448Z,20.70
2022-09-23T14:24:50.224Z,20.80
2022-09-23T14:28:55.467Z,20.80
2022-09-23T14:32:59.206Z,20.00
2022-09-23T14:37:33.147Z,20.30
2022-09-23T14:41:39.223Z,20.10
2022-09-23T14:45:47.381Z,20.10
2022-09-23T14:50:11.533Z,20.10
2022-09-23T14:54:42.576Z,19.70
2022-09-23T14:58:54.337Z,20.00
2022-09-23T15:03:03.690Z,20.50
2022-09-23T15:07:09.699Z,20.50
2022-09-23T15:11:13.119Z,20.20
2022-09-23T15:15:17.531Z,20.50
2022-09-23T15:19:23.529Z,20.60
2022-09-23T15:23:38.076Z,19.80
2022-09-23T15:27:40.967Z,19.50
2022-09-23T15:31:43.951Z,19.50
2022-09-23T15:35:49.994Z,19.50
2022-09-23T15:39:53.094Z,19.40
2022-09-23T15:43:56.546Z,19.20
2022-09-23T15:48:04.100Z,18.70
2022-09-23T15:52:12.242Z,19.00
2022-09-23T15:56:15.327Z,18.60
2022-09-23T16:00:18.448Z,18.30
2022-09-23T16:04:21.788Z,18.50
2022-09-23T16:08:26.060Z,18.30
2022-09-23T16:12:29.200Z,18.00
2022-09-23T16:16:32.255Z,18.10
2022-09-23T16:20:37.667Z,18.10
2022-09-23T16:24:41.890Z,18.20
2022-09-23T16:28:45.913Z,18.20
2022-09-23T16:32:48.777Z,18.20
2022-09-23T16:36:51.731Z,18.40
2022-09-23T16:40:59.324Z,18.00
2022-09-23T16:45:02.320Z,17.60
2022-09-23T16:49:05.446Z,17.00
2022-09-23T16:53:08.645Z,16.40
2022-09-23T16:57:13.513Z,16.00
2022-09-23T17:01:37.557Z,15.90
2022-09-23T17:05:40.438Z,15.80
2022-09-23T17:09:43.399Z,15.50
2022-09-23T17:13:48.071Z,14.90
2022-09-23T17:17:51.728Z,14.70
2022-09-23T17:21:54.909Z,15.20
2022-09-23T17:25:58.305Z,15.20
2022-09-23T17:30:03.284Z,14.70
2022-09-23T17:34:06.314Z,14.50
2022-09-23T17:38:09.353Z,14.70
2022-09-23T17:42:12.399Z,14.80
2022-09-23T17:46:19.003Z,14.70
2022-09-23T17:50:22.745Z,13.90
2022-09-23T17:54:26.151Z,13.60
2022-09-23T17:58:30.818Z,13.30
2022-09-23T18:02:35.288Z,13.50
2022-09-23T18:06:38.739Z,13.50
2022-09-23T18:10:41.638Z,13.30
2022-09-23T18:14:45.233Z,13.30
2022-09-23T18:18:52.944Z,13.30
2022-09-23T18:22:55.902Z,13.30
2022-09-23T18:26:59.829Z,13.30
2022-09-23T18:31:03.099Z,13.30
2022-09-23T18:35:08.100Z,13.00
2022-09-23T18:39:11.585Z,12.70
2022-09-23T18:43:17.317Z,12.20
2022-09-23T18:47:36.498Z,12.20
2022-09-23T18:51:49.634Z,12.30
2022-09-23T18:55:52.721Z,12.30
2022-09-23T18:59:55.713Z,11.90
2022-09-23T19:03:59.683Z,11.70
2022-09-23T19:08:04.088Z,11.70
2022-09-23T19:12:07.021Z,11.50
2022-09-23T19:16:11.960Z,11.30
2022-09-23T19:20:14.965Z,11.30
2022-09-23T19:24:20.472Z,11.40
2022-09-23T19:28:25.405Z,11.30
2022-09-23T19:32:28.298Z,11.20
2022-09-23T19:36:33.299Z,11.40
2022-09-23T19:40:38.195Z,11.30
2022-09-23T19:44:41.260Z,10.90
2022-09-23T19:48:44.211Z,10.60
2022-09-23T19:52:47.056Z,10.60
2022-09-23T19:56:51.747Z,10.70
2022-09-23T20:00:54.861Z,11.00
2022-09-23T20:04:57.774Z,11.10
2022-09-23T20:09:00.979Z,10.90
2022-09-23T20:13:05.199Z,10.30
2022-09-23T20:17:08.447Z,10.40
2022-09-23T20:21:13.002Z,10.60
2022-09-23T20:25:16.225Z,10.40
2022-09-23T20:29:20.489Z,10.40
2022-09-23T20:33:23.414Z,10.10
2022-09-23T20:37:26.357Z,10.10
2022-09-23T20:41:31.257Z,10.30
2022-09-23T20:45:36.356Z,10.20
2022-09-23T20:49:42.310Z,9.90
2022-09-23T20:53:45.750Z,9.90
2022-09-23T20:57:48.891Z,9.80
2022-09-23T21:01:55.547Z,9.80
2022-09-23T21:06:01.237Z,9.60
2022-09-23T21:10:06.899Z,9.70
2022-09-23T21:14:10.343Z,9.70
2022-09-23T21:18:18.115Z,9.70
2022-09-23T21:22:23.797Z,9.50
2022-09-23T21:26:27.515Z,9.50
2022-09-23T21:30:30.502Z,9.60
2022-09-23T21:34:34.868Z,9.70
2022-09-23T21:38:38.537Z,9.50
2022-09-23T21:42:42.065Z,9.50
2022-09-23T21:46:45.062Z,9.20
2022-09-23T21:51:00.080Z,9.20
2022-09-23T21:55:03.019Z,9.30
2022-09-23T21:59:07.603Z,9.20
2022-09-23T22:03:10.601Z,9.00
2022-09-23T22:07:15.218Z,9.10
2022-09-23T22:11:37.369Z,9.20
2022-09-23T22:15:40.360Z,9.30
2022-09-23T22:19:47.167Z,9.20
2022-09-23T22:23:53.011Z,9.20
2022-09-23T22:28:14.081Z,9.20
2022-09-23T22:32:34.413Z,9.20
2022-09-23T22:36:37.410Z,9.00
2022-09-23T22:40:43.757Z,8.90
2022-09-23T22:44:46.754Z,9.00
2022-09-23T22:48:53.420Z,8.90
2022-09-23T22:52:56.363Z,8.80
2022-09-23T22:57:02.324Z,9.00
2022-09-23T23:01:05.453Z,8.80
2022-09-23T23:05:09.512Z,8.50
2022-09-23T23:09:15.722Z,8.60
2022-09-23T23:13:20.247Z,8.80
2022-09-23T23:17:23.261Z,8.70
2022-09-23T23:21:26.202Z,9.00
2022-09-23T23:25:29.181Z,8.70
2022-09-23T23:29:33.506Z,8.90
2022-09-23T23:33:37.045Z,9.00
2022-09-23T23:37:39.942Z,8.80
2022-09-23T23:41:42.933Z,9.00
2022-09-23T23:45:48.724Z,8.80
2022-09-23T23:49:51.604Z,8.80
2022-09-23T23:53:55.661Z,8.60
2022-09-23T23:58:03.144Z,8.60
